createdAt,value
2022-11-23T00:02:04.617Z,9.90
2022-11-23T00:04:36.268Z,9.60
2022-11-23T00:07:07.940Z,9.30
2022-11-23T00:09:40.932Z,9.00
2022-11-23T00:12:12.550Z,8.70
2022-11-23T00:14:44.160Z,8.50
2022-11-23T00:17:15.745Z,8.30
2022-11-23T00:19:47.354Z,8.10
2022-11-23T00:22:18.952Z,7.90
2022-11-23T00:24:51.980Z,7.70
2022-11-23T00:27:23.616Z,7.50
2022-11-23T00:29:55.262Z,7.30
2022-11-23T00:32:28.658Z,7.30
2022-11-23T00:37:33.847Z,7.00
2022-11-23T00:40:09.895Z,6.60
2022-11-23T00:42:41.557Z,6.60
2022-11-23T00:45:13.153Z,6.50
2022-11-23T00:47:44.772Z,6.50
2022-11-23T00:50:16.732Z,6.40
2022-11-23T00:52:48.360Z,6.30
2022-11-23T00:55:21.308Z,6.20
2022-11-23T00:57:52.893Z,6.20
2022-11-23T01:00:24.479Z,6.10
2022-11-23T01:02:56.085Z,6.00
2022-11-23T01:05:27.674Z,6.00
2022-11-23T01:07:59.270Z,5.90
2022-11-23T01:10:32.378Z,6.00
2022-11-23T01:13:03.989Z,5.90
2022-11-23T01:15:35.582Z,5.70
2022-11-23T01:18:07.210Z,5.80
2022-11-23T01:20:38.785Z,5.70
2022-11-23T01:23:10.427Z,5.70
2022-11-23T01:25:43.419Z,5.70
2022-11-23T01:28:15.175Z,5.60
2022-11-23T01:33:18.793Z,5.30
2022-11-23T01:35:50.373Z,5.30
2022-11-23T01:38:21.982Z,5.20
2022-11-23T01:40:54.924Z,5.20
2022-11-23T01:43:26.526Z,5.20
2022-11-23T01:45:59.321Z,5.10
2022-11-23T01:48:32.953Z,5.10
2022-11-23T01:51:05.576Z,5.10
2022-11-23T01:53:37.369Z,5.10
2022-11-23T01:56:13.330Z,5.10
2022-11-23T01:58:47.268Z,5.00
2022-11-23T02:01:18.910Z,5.00
2022-11-23T02:03:51.667Z,5.00
2022-11-23T02:06:23.370Z,5.00
2022-11-23T02:08:55.586Z,5.00
2022-11-23T02:11:28.775Z,4.90
2022-11-23T02:14:00.515Z,4.90
2022-11-23T02:16:32.165Z,4.90
2022-11-23T02:19:04.397Z,4.90
2022-11-23T02:21:36.025Z,4.90
2022-11-23T02:24:08.989Z,4.90
2022-11-23T02:26:42.112Z,4.80
2022-11-23T02:29:17.259Z,4.80
2022-11-23T02:31:49.166Z,4.80
2022-11-23T02:34:21.069Z,4.80
2022-11-23T02:36:53.790Z,4.80
2022-11-23T02:39:29.007Z,4.80
2022-11-23T02:42:02.535Z,4.80
2022-11-23T02:44:39.698Z,4.80
2022-11-23T02:47:11.398Z,4.80
2022-11-23T02:49:46.058Z,4.80
2022-11-23T02:52:17.946Z,4.80
2022-11-23T02:54:49.590Z,4.80
2022-11-23T02:57:22.597Z,4.80
2022-11-23T02:59:54.268Z,4.90
2022-11-23T03:02:25.909Z,4.90
2022-11-23T03:04:57.518Z,4.90
2022-11-23T03:07:29.218Z,4.90
2022-11-23T03:10:00.871Z,5.00
2022-11-23T03:12:33.870Z,5.00
2022-11-23T03:15:06.033Z,5.00
2022-11-23T03:17:37.638Z,5.00
2022-11-23T03:20:09.662Z,5.10
2022-11-23T03:22:41.275Z,5.10
2022-11-23T03:25:13.006Z,5.10
2022-11-23T03:27:46.043Z,5.10
2022-11-23T03:30:17.681Z,5.20
2022-11-23T03:32:49.314Z,5.20
2022-11-23T03:35:20.923Z,5.20
2022-11-23T03:37:52.527Z,5.20
2022-11-23T03:40:24.131Z,5.30
2022-11-23T03:42:57.553Z,5.30
2022-11-23T03:45:29.287Z,5.30
2022-11-23T03:48:00.900Z,5.30
2022-11-23T03:50:32.691Z,5.30
2022-11-23T03:53:04.302Z,5.30
2022-11-23T03:55:35.945Z,5.30
2022-11-23T03:58:09.015Z,5.30
2022-11-23T04:00:40.713Z,5.40
2022-11-23T04:03:12.373Z,5.40
2022-11-23T04:05:44.072Z,5.40
2022-11-23T04:08:15.690Z,5.40
2022-11-23T04:10:47.299Z,5.40
2022-11-23T04:13:20.285Z,5.50
2022-11-23T04:15:51.915Z,5.50
2022-11-23T04:18:23.584Z,5.50
2022-11-23T04:20:55.181Z,5.50
2022-11-23T04:23:26.809Z,5.50
2022-11-23T04:25:58.446Z,5.60
2022-11-23T04:28:31.396Z,5.60
2022-11-23T04:31:02.999Z,5.60
2022-11-23T04:33:34.694Z,5.70
2022-11-23T04:36:06.461Z,5.70
2022-11-23T04:38:38.110Z,5.70
2022-11-23T04:41:10.044Z,5.80
2022-11-23T04:43:43.001Z,5.80
2022-11-23T04:46:14.665Z,5.80
2022-11-23T04:48:46.275Z,5.90
2022-11-23T04:51:17.876Z,5.90
2022-11-23T04:53:49.484Z,5.90
2022-11-23T04:56:21.072Z,5.90
2022-11-23T04:58:54.038Z,5.90
2022-11-23T05:01:25.767Z,6.00
2022-11-23T05:03:57.705Z,6.10
2022-11-23T05:06:29.302Z,6.10
2022-11-23T05:09:00.936Z,6.10
2022-11-23T05:11:32.546Z,6.10
2022-11-23T05:14:05.592Z,6.10
2022-11-23T05:16:37.193Z,6.20
2022-11-23T05:19:09.070Z,6.20
2022-11-23T05:21:40.763Z,6.20
2022-11-23T05:24:12.419Z,6.20
2022-11-23T05:26:44.039Z,6.20
2022-11-23T05:29:16.989Z,6.30
2022-11-23T05:31:48.592Z,6.30
2022-11-23T05:34:20.282Z,6.30
2022-11-23T05:36:51.915Z,6.30
2022-11-23T05:39:23.576Z,6.30
2022-11-23T05:41:55.199Z,6.30
2022-11-23T05:44:28.144Z,6.40
2022-11-23T05:46:59.957Z,6.40
2022-11-23T05:49:32.084Z,6.40
2022-11-23T05:52:04.071Z,6.40
2022-11-23T05:54:35.761Z,6.40
2022-11-23T05:57:07.607Z,6.50
2022-11-23T05:59:40.561Z,6.50
2022-11-23T06:02:12.166Z,6.50
2022-11-23T06:04:43.839Z,6.50
2022-11-23T06:07:15.486Z,6.50
2022-11-23T06:09:47.131Z,6.50
2022-11-23T06:12:18.843Z,6.60
2022-11-23T06:14:51.781Z,6.60
2022-11-23T06:17:23.600Z,6.60
2022-11-23T06:19:55.272Z,6.60
2022-11-23T06:22:26.931Z,6.60
2022-11-23T06:24:58.542Z,6.90
2022-11-23T06:27:30.242Z,7.20
2022-11-23T06:30:04.071Z,7.50
2022-11-23T06:32:35.746Z,7.80
2022-11-23T06:35:07.549Z,8.20
2022-11-23T06:37:39.197Z,8.50
2022-11-23T06:40:11.727Z,8.80
2022-11-23T06:42:43.377Z,9.00
2022-11-23T06:45:16.594Z,9.30
2022-11-23T06:47:48.230Z,9.50
2022-11-23T06:50:19.841Z,9.70
2022-11-23T06:52:53.921Z,9.90
2022-11-23T06:55:25.645Z,10.10
2022-11-23T06:57:58.780Z,10.30
2022-11-23T07:00:31.753Z,10.50
2022-11-23T07:03:03.382Z,10.60
2022-11-23T07:05:38.166Z,10.70
2022-11-23T07:08:09.792Z,10.70
2022-11-23T07:10:41.677Z,10.50
2022-11-23T07:13:14.289Z,10.30
2022-11-23T07:15:47.283Z,10.10
2022-11-23T07:18:18.892Z,9.90
2022-11-23T07:20:50.860Z,9.60
2022-11-23T07:23:22.472Z,9.40
2022-11-23T07:25:54.122Z,9.30
2022-11-23T07:28:25.749Z,9.10
2022-11-23T07:30:58.682Z,8.90
2022-11-23T07:33:30.319Z,8.80
2022-11-23T07:36:02.730Z,8.70
2022-11-23T07:38:34.407Z,8.50
2022-11-23T07:41:06.128Z,8.40
2022-11-23T07:43:37.760Z,8.30
2022-11-23T07:46:10.837Z,8.30
2022-11-23T07:48:42.502Z,8.20
2022-11-23T07:51:14.756Z,8.10
2022-11-23T07:53:46.386Z,8.10
2022-11-23T07:56:17.964Z,8.00
2022-11-23T07:58:49.574Z,8.00
2022-11-23T08:01:22.514Z,8.00
2022-11-23T08:03:54.115Z,7.90
2022-11-23T08:06:25.769Z,7.90
2022-11-23T08:08:57.480Z,7.90
2022-11-23T08:11:29.094Z,7.90
2022-11-23T08:14:00.745Z,7.90
2022-11-23T08:16:33.714Z,7.90
2022-11-23T08:19:05.531Z,7.90
2022-11-23T08:21:37.144Z,7.90
2022-11-23T08:24:08.766Z,7.90
2022-11-23T08:26:40.363Z,7.90
2022-11-23T08:29:12.096Z,8.00
2022-11-23T08:31:45.126Z,8.00
2022-11-23T08:34:18.595Z,8.00
2022-11-23T08:36:50.187Z,8.00
2022-11-23T08:39:21.790Z,8.10
2022-11-23T08:41:56.145Z,8.10
2022-11-23T08:44:33.287Z,8.10
2022-11-23T08:47:08.832Z,8.10
2022-11-23T08:49:40.471Z,8.10
2022-11-23T08:52:14.368Z,8.20
2022-11-23T08:54:45.966Z,8.20
2022-11-23T08:57:17.572Z,8.20
2022-11-23T08:59:49.196Z,8.30
2022-11-23T09:02:22.322Z,8.30
2022-11-23T09:04:54.188Z,8.30
2022-11-23T09:07:26.079Z,8.40
2022-11-23T09:09:57.839Z,8.40
2022-11-23T09:12:29.439Z,8.50
2022-11-23T09:15:01.053Z,8.50
2022-11-23T09:17:34.008Z,8.60
2022-11-23T09:20:06.199Z,8.60
2022-11-23T09:22:38.207Z,8.70
2022-11-23T09:25:10.381Z,8.70
2022-11-23T09:27:42.017Z,8.80
2022-11-23T09:30:14.222Z,8.80
2022-11-23T09:32:47.332Z,8.90
2022-11-23T09:35:19.079Z,8.90
2022-11-23T09:37:55.802Z,8.90
2022-11-23T09:40:30.850Z,8.90
2022-11-23T09:43:17.183Z,8.90
2022-11-23T09:45:52.239Z,8.90
2022-11-23T09:48:38.551Z,8.90
2022-11-23T09:51:14.428Z,8.90
2022-11-23T09:53:47.509Z,9.00
2022-11-23T09:56:20.724Z,9.00
2022-11-23T09:58:54.278Z,9.00
2022-11-23T10:01:27.607Z,9.00
2022-11-23T10:04:00.769Z,9.00
2022-11-23T10:06:36.730Z,9.10
2022-11-23T10:09:16.987Z,9.10
2022-11-23T10:12:04.562Z,9.10
2022-11-23T10:14:42.979Z,9.20
2022-11-23T10:17:18.254Z,9.20
2022-11-23T10:19:58.841Z,9.30
2022-11-23T10:22:38.646Z,9.30
2022-11-23T10:25:15.393Z,9.40
2022-11-23T10:27:49.885Z,9.40
2022-11-23T10:30:21.917Z,9.50
2022-11-23T10:33:00.143Z,9.50
2022-11-23T10:35:35.188Z,9.60
2022-11-23T10:38:18.113Z,9.60
2022-11-23T10:40:55.938Z,9.70
2022-11-23T10:43:29.551Z,9.70
2022-11-23T10:46:28.401Z,9.80
2022-11-23T10:49:10.555Z,9.90
2022-11-23T10:51:50.078Z,9.90
2022-11-23T10:54:23.457Z,10.00
2022-11-23T10:56:55.801Z,10.10
2022-11-23T10:59:29.593Z,10.10
2022-11-23T11:02:02.392Z,10.20
2022-11-23T11:04:34.271Z,10.30
2022-11-23T11:07:17.432Z,10.30
2022-11-23T11:09:50.437Z,10.40
2022-11-23T11:12:22.117Z,10.60
2022-11-23T11:15:12.184Z,10.70
2022-11-23T11:17:44.052Z,10.80
2022-11-23T11:20:31.913Z,11.00
2022-11-23T11:23:17.274Z,11.10
2022-11-23T11:26:01.907Z,11.70
2022-11-23T11:28:35.339Z,11.70
2022-11-23T11:31:21.852Z,12.10
2022-11-23T11:33:55.891Z,12.50
2022-11-23T11:44:25.994Z,14.50
2022-11-23T11:49:39.997Z,15.50
2022-11-23T11:52:19.000Z,15.90
2022-11-23T11:54:57.218Z,16.40
2022-11-23T12:00:13.059Z,17.20
2022-11-23T12:02:55.606Z,17.90
2022-11-23T12:05:33.181Z,17.90
2022-11-23T12:08:10.521Z,18.80
2022-11-23T12:10:48.462Z,19.30
2022-11-23T12:13:22.477Z,19.20
2022-11-23T12:21:31.046Z,20.40
2022-11-23T12:24:11.560Z,20.90
2022-11-23T12:26:51.747Z,20.80
2022-11-23T12:29:49.217Z,21.20
2022-11-23T12:35:34.052Z,22.00
2022-11-23T12:38:20.014Z,22.30
2022-11-23T12:41:14.418Z,22.60
2022-11-23T12:43:58.899Z,22.80
2022-11-23T12:46:38.980Z,23.00
2022-11-23T12:49:25.058Z,23.20
2022-11-23T12:52:08.279Z,23.40
2022-11-23T12:54:54.164Z,23.60
2022-11-23T12:57:31.863Z,23.80
2022-11-23T13:00:06.884Z,23.90
2022-11-23T13:03:26.604Z,24.10
2022-11-23T13:06:31.134Z,24.30
2022-11-23T13:09:30.191Z,24.30
2022-11-23T13:12:15.352Z,24.40
2022-11-23T13:14:59.034Z,24.40
2022-11-23T13:17:39.583Z,24.40
2022-11-23T13:20:48.883Z,24.20
2022-11-23T13:23:23.498Z,23.70
2022-11-23T13:26:17.649Z,23.10
2022-11-23T13:28:50.775Z,22.40
2022-11-23T13:31:28.627Z,21.80
2022-11-23T13:34:02.466Z,21.20
2022-11-23T13:37:11.118Z,20.60
2022-11-23T13:40:01.897Z,19.90
2022-11-23T13:42:35.200Z,19.30
2022-11-23T13:45:27.334Z,18.80
2022-11-23T13:51:26.027Z,17.90
2022-11-23T13:54:02.515Z,17.40
2022-11-23T13:56:36.627Z,17.00
2022-11-23T13:59:28.474Z,16.70
2022-11-23T14:02:26.980Z,16.50
2022-11-23T14:05:44.183Z,16.20
2022-11-23T14:13:32.154Z,15.40
2022-11-23T14:16:13.246Z,15.40
2022-11-23T14:19:01.412Z,15.30
2022-11-23T14:27:31.245Z,14.90
2022-11-23T14:30:14.475Z,14.80
2022-11-23T14:33:03.811Z,14.70
2022-11-23T14:35:46.617Z,14.50
2022-11-23T14:38:56.311Z,14.50
2022-11-23T14:41:30.757Z,14.30
2022-11-23T14:44:04.085Z,14.20
2022-11-23T14:46:35.722Z,14.20
2022-11-23T14:49:14.290Z,14.00
2022-11-23T14:51:46.067Z,13.90
2022-11-23T14:54:19.022Z,13.80
2022-11-23T14:56:53.527Z,13.70
2022-11-23T14:59:27.649Z,13.60
2022-11-23T15:02:02.447Z,13.60
2022-11-23T15:04:42.532Z,13.40
2022-11-23T15:07:20.995Z,13.30
2022-11-23T15:10:02.563Z,13.10
2022-11-23T15:12:42.654Z,13.00
2022-11-23T15:15:19.331Z,12.90
2022-11-23T15:17:52.428Z,12.80
2022-11-23T15:20:29.934Z,12.60
2022-11-23T15:23:02.275Z,12.60
2022-11-23T15:25:34.082Z,12.40
2022-11-23T15:28:16.976Z,12.30
2022-11-23T15:30:52.453Z,12.30
2022-11-23T15:33:27.566Z,12.10
2022-11-23T15:36:00.687Z,12.20
2022-11-23T15:38:32.498Z,12.00
2022-11-23T15:41:05.140Z,11.90
2022-11-23T15:43:36.989Z,11.90
2022-11-23T15:46:14.257Z,11.80
2022-11-23T15:48:49.057Z,11.80
2022-11-23T15:51:28.376Z,11.70
2022-11-23T15:54:01.024Z,11.50
2022-11-23T15:56:37.480Z,11.50
2022-11-23T15:59:27.343Z,11.40
2022-11-23T16:02:01.676Z,11.40
2022-11-23T16:04:37.486Z,11.40
2022-11-23T16:07:21.895Z,11.30
2022-11-23T16:10:11.701Z,11.30
2022-11-23T16:12:49.791Z,11.30
2022-11-23T16:15:38.376Z,11.20
2022-11-23T16:18:22.455Z,11.20
2022-11-23T16:20:56.655Z,11.20
2022-11-23T16:23:45.952Z,11.20
2022-11-23T16:26:18.577Z,11.10
2022-11-23T16:28:53.254Z,11.10
2022-11-23T16:31:29.242Z,11.10
2022-11-23T16:34:01.074Z,11.10
2022-11-23T16:36:32.787Z,11.10
2022-11-23T16:39:06.081Z,11.10
2022-11-23T16:41:38.151Z,11.10
2022-11-23T16:44:09.993Z,11.10
2022-11-23T16:46:43.733Z,11.10
2022-11-23T16:49:18.481Z,11.10
2022-11-23T16:51:56.971Z,11.10
2022-11-23T16:54:30.974Z,11.10
2022-11-23T16:57:04.574Z,11.10
2022-11-23T16:59:36.650Z,11.10
2022-11-23T17:02:11.997Z,11.20
2022-11-23T17:04:44.150Z,11.50
2022-11-23T17:07:16.907Z,11.80
2022-11-23T17:09:50.143Z,12.10
2022-11-23T17:12:21.894Z,12.40
2022-11-23T17:14:53.664Z,12.70
2022-11-23T17:17:25.771Z,13.00
2022-11-23T17:20:02.499Z,13.20
2022-11-23T17:22:35.781Z,13.40
2022-11-23T17:25:15.019Z,13.60
2022-11-23T17:27:47.170Z,13.80
2022-11-23T17:30:21.456Z,13.90
2022-11-23T17:32:53.439Z,13.90
2022-11-23T17:35:25.483Z,13.80
2022-11-23T17:37:57.417Z,13.70
2022-11-23T17:40:30.532Z,13.60
2022-11-23T17:43:02.357Z,13.60
2022-11-23T17:45:34.352Z,13.50
2022-11-23T17:48:06.720Z,13.50
2022-11-23T17:50:38.541Z,13.40
2022-11-23T17:53:10.746Z,13.40
2022-11-23T17:55:44.138Z,13.30
2022-11-23T17:58:16.027Z,13.30
2022-11-23T18:00:47.790Z,13.30
2022-11-23T18:03:19.581Z,13.30
2022-11-23T18:05:51.337Z,13.40
2022-11-23T18:08:23.096Z,13.50
2022-11-23T18:10:59.102Z,13.60
2022-11-23T18:13:31.124Z,13.80
2022-11-23T18:16:04.108Z,13.80
2022-11-23T18:18:36.315Z,14.00
2022-11-23T18:21:09.674Z,14.10
2022-11-23T18:23:42.211Z,14.10
2022-11-23T18:26:18.214Z,14.10
2022-11-23T18:28:50.259Z,14.20
2022-11-23T18:31:22.161Z,14.20
2022-11-23T18:33:56.552Z,14.30
2022-11-23T18:36:28.932Z,14.30
2022-11-23T18:39:01.809Z,14.40
2022-11-23T18:41:52.804Z,14.40
2022-11-23T18:44:33.519Z,14.50
2022-11-23T18:48:07.859Z,14.50
2022-11-23T18:54:05.715Z,14.60
2022-11-23T18:56:37.612Z,14.60
2022-11-23T18:59:23.957Z,14.60
2022-11-23T19:02:02.949Z,14.60
2022-11-23T19:04:34.774Z,14.50
2022-11-23T19:07:06.693Z,14.40
2022-11-23T19:09:38.482Z,14.30
2022-11-23T19:12:10.459Z,14.20
2022-11-23T19:14:48.013Z,14.00
2022-11-23T19:17:20.043Z,13.90
2022-11-23T19:19:55.546Z,13.90
2022-11-23T19:22:28.676Z,13.80
2022-11-23T19:25:01.857Z,13.70
2022-11-23T19:27:39.547Z,13.70
2022-11-23T19:30:18.781Z,13.70
2022-11-23T19:32:54.019Z,13.70
2022-11-23T19:35:29.591Z,13.80
2022-11-23T19:38:06.266Z,13.80
2022-11-23T19:43:18.660Z,13.90
2022-11-23T19:45:54.954Z,13.90
2022-11-23T19:48:26.896Z,14.00
2022-11-23T19:51:00.355Z,14.00
2022-11-23T19:53:33.731Z,14.00
2022-11-23T19:56:06.585Z,14.00
2022-11-23T19:58:39.178Z,13.90
2022-11-23T20:01:14.574Z,13.70
2022-11-23T20:03:48.588Z,13.50
2022-11-23T20:06:24.006Z,13.40
2022-11-23T20:08:57.645Z,13.10
2022-11-23T20:11:31.408Z,12.90
2022-11-23T20:14:03.575Z,12.80
2022-11-23T20:16:37.481Z,12.70
2022-11-23T20:19:09.868Z,12.60
2022-11-23T20:21:41.730Z,12.40
2022-11-23T20:24:14.387Z,12.30
2022-11-23T20:26:49.182Z,12.20
2022-11-23T20:29:21.103Z,12.10
2022-11-23T20:31:54.241Z,12.00
2022-11-23T20:34:26.495Z,11.90
2022-11-23T20:36:59.881Z,11.80
2022-11-23T20:39:31.682Z,11.80
2022-11-23T20:42:03.838Z,11.80
2022-11-23T20:52:31.883Z,11.80
2022-11-23T21:21:58.736Z,11.80
2022-11-23T21:24:32.828Z,11.80
2022-11-23T21:27:06.298Z,11.80
2022-11-23T21:29:38.178Z,11.80
2022-11-23T21:32:10.114Z,11.80
2022-11-23T21:34:42.253Z,11.80
2022-11-23T21:37:14.091Z,11.80
2022-11-23T21:39:52.705Z,11.80
2022-11-23T21:42:25.010Z,11.80
2022-11-23T21:44:56.887Z,11.80
2022-11-23T21:47:28.884Z,11.70
2022-11-23T21:50:00.739Z,11.80
2022-11-23T21:52:32.597Z,11.80
2022-11-23T21:55:09.311Z,11.60
2022-11-23T21:57:41.068Z,11.40
2022-11-23T22:00:13.633Z,11.10
2022-11-23T22:02:45.422Z,11.00
2022-11-23T22:05:17.298Z,10.70
2022-11-23T22:08:13.637Z,10.50
2022-11-23T22:10:42.188Z,10.40
2022-11-23T22:13:13.939Z,10.30
2022-11-23T22:15:46.109Z,10.10
2022-11-23T22:21:04.151Z,10.00
2022-11-23T22:23:36.152Z,9.90
2022-11-23T22:26:11.445Z,9.90
2022-11-23T22:28:45.172Z,9.80
2022-11-23T22:31:19.075Z,9.80
2022-11-23T22:33:52.581Z,9.70
2022-11-23T22:36:24.716Z,9.70
2022-11-23T22:39:01.316Z,9.70
2022-11-23T22:41:37.214Z,9.80
2022-11-23T22:44:10.278Z,9.80
2022-11-23T22:46:44.888Z,9.80
2022-11-23T22:49:16.893Z,9.80
2022-11-23T22:51:48.854Z,9.80
2022-11-23T22:54:20.633Z,9.70
2022-11-23T22:56:53.754Z,9.80
2022-11-23T22:59:25.523Z,9.70
2022-11-23T23:01:57.678Z,9.70
2022-11-23T23:04:29.513Z,9.70
2022-11-23T23:07:01.279Z,9.70
2022-11-23T23:09:33.063Z,9.70
2022-11-23T23:12:06.723Z,9.70
2022-11-23T23:14:38.503Z,9.70
2022-11-23T23:17:10.270Z,9.70
2022-11-23T23:19:42.221Z,9.60
2022-11-23T23:22:13.996Z,9.60
2022-11-23T23:24:45.889Z,9.60
2022-11-23T23:27:19.049Z,9.60
2022-11-23T23:29:50.909Z,9.60
2022-11-23T23:32:22.755Z,9.60
2022-11-23T23:34:54.568Z,9.60
2022-11-23T23:37:26.325Z,9.60
2022-11-23T23:39:58.155Z,9.70
2022-11-23T23:42:32.807Z,9.70
2022-11-23T23:45:05.181Z,9.70
2022-11-23T23:47:37.558Z,9.80
2022-11-23T23:50:10.414Z,9.80
2022-11-23T23:52:42.361Z,9.80
2022-11-23T23:55:14.323Z,9.90
2022-11-23T23:57:47.786Z,9.90
